createdAt,value
2017-09-27T00:00:37.497Z,962.35
2017-09-27T00:02:31.881Z,962.37
2017-09-27T00:03:31.919Z,962.36
2017-09-27T00:05:25.261Z,962.34
2017-09-27T00:06:25.346Z,962.31
2017-09-27T00:08:18.768Z,962.31
2017-09-27T00:09:18.729Z,962.31
2017-09-27T00:11:12.129Z,962.29
2017-09-27T00:12:12.116Z,962.29
2017-09-27T00:14:05.583Z,962.28
2017-09-27T00:15:05.568Z,962.29
2017-09-27T00:16:58.947Z,962.26
2017-09-27T00:17:58.983Z,962.29
2017-09-27T00:20:05.313Z,962.28
2017-09-27T00:21:05.330Z,962.25
2017-09-27T00:22:58.747Z,962.25
2017-09-27T00:23:58.764Z,962.21
2017-09-27T00:25:53.124Z,962.20
2017-09-27T00:26:53.094Z,962.18
2017-09-27T00:28:46.522Z,962.21
2017-09-27T00:29:46.514Z,962.18
2017-09-27T00:31:39.928Z,962.17
2017-09-27T00:32:39.947Z,962.17
2017-09-27T00:34:33.335Z,962.19
2017-09-27T00:35:33.339Z,962.20
2017-09-27T00:37:26.743Z,962.18
2017-09-27T00:38:26.736Z,962.21
2017-09-27T00:40:27.738Z,962.22
2017-09-27T00:41:20.141Z,962.17
2017-09-27T00:43:13.574Z,962.14
2017-09-27T00:44:13.553Z,962.16
2017-09-27T00:46:06.970Z,962.13
2017-09-27T00:47:06.979Z,962.12
2017-09-27T00:49:00.352Z,962.14
2017-09-27T00:50:00.335Z,962.14
2017-09-27T00:51:53.765Z,962.08
2017-09-27T00:52:53.773Z,962.10
2017-09-27T00:54:47.202Z,962.10
2017-09-27T00:55:47.130Z,962.09
2017-09-27T00:57:41.596Z,962.10
2017-09-27T00:58:41.592Z,962.10
2017-09-27T01:00:34.935Z,962.11
2017-09-27T01:01:34.953Z,962.13
2017-09-27T01:03:37.028Z,962.13
2017-09-27T01:04:28.370Z,962.17
2017-09-27T01:06:21.723Z,962.18
2017-09-27T01:07:21.773Z,962.21
2017-09-27T01:09:15.249Z,962.16
2017-09-27T01:10:15.190Z,962.17
2017-09-27T01:12:08.608Z,962.15
2017-09-27T01:13:08.590Z,962.15
2017-09-27T01:15:01.989Z,962.19
2017-09-27T01:16:01.976Z,962.14
2017-09-27T01:17:55.391Z,962.17
2017-09-27T01:18:55.386Z,962.21
2017-09-27T01:20:48.779Z,962.19
2017-09-27T01:21:48.824Z,962.18
2017-09-27T01:23:42.190Z,962.17
2017-09-27T01:24:42.266Z,962.18
2017-09-27T01:26:35.663Z,962.15
2017-09-27T01:27:35.650Z,962.17
2017-09-27T01:29:28.995Z,962.10
2017-09-27T01:30:36.643Z,962.13
2017-09-27T01:32:30.020Z,962.09
2017-09-27T01:33:22.413Z,962.07
2017-09-27T01:35:16.837Z,962.08
2017-09-27T01:36:16.848Z,962.11
2017-09-27T01:38:17.863Z,962.10
2017-09-27T01:39:10.266Z,962.07
2017-09-27T01:41:03.672Z,962.09
2017-09-27T01:42:03.681Z,962.08
2017-09-27T01:43:57.087Z,962.05
2017-09-27T01:44:57.070Z,962.04
2017-09-27T01:46:58.124Z,962.03
2017-09-27T01:47:51.633Z,962.06
2017-09-27T01:49:51.485Z,962.08
2017-09-27T01:52:30.952Z,962.07
2017-09-27T01:54:44.162Z,962.08
2017-09-27T01:55:25.288Z,962.03
2017-09-27T01:57:25.973Z,962.03
2017-09-27T01:58:26.895Z,962.01
2017-09-27T02:00:19.452Z,962.03
2017-09-27T02:01:11.691Z,962.02
2017-09-27T02:03:12.720Z,962.04
2017-09-27T02:04:05.115Z,962.05
2017-09-27T02:05:58.570Z,962.07
2017-09-27T02:06:58.584Z,962.06
2017-09-27T02:09:01.562Z,962.10
2017-09-27T02:09:52.913Z,962.10
2017-09-27T02:11:46.402Z,962.11
2017-09-27T02:12:46.359Z,962.10
2017-09-27T02:14:47.376Z,962.14
2017-09-27T02:15:39.754Z,962.13
2017-09-27T02:17:33.204Z,962.09
2017-09-27T02:18:33.139Z,962.08
2017-09-27T02:20:34.159Z,962.12
2017-09-27T02:21:26.565Z,962.10
2017-09-27T02:23:21.976Z,962.12
2017-09-27T02:24:21.995Z,962.13
2017-09-27T02:26:15.376Z,962.12
2017-09-27T02:27:15.336Z,962.11
2017-09-27T02:29:08.790Z,962.10
2017-09-27T02:30:08.813Z,962.07
2017-09-27T02:32:02.263Z,962.09
2017-09-27T02:33:02.177Z,962.07
2017-09-27T02:34:56.554Z,962.06
2017-09-27T02:35:56.619Z,962.02
2017-09-27T02:37:49.982Z,962.00
2017-09-27T02:38:49.996Z,962.00
2017-09-27T02:40:43.449Z,962.00
2017-09-27T02:41:51.038Z,961.98
2017-09-27T02:43:44.373Z,962.01
2017-09-27T02:44:36.797Z,961.99
2017-09-27T02:46:37.824Z,962.00
2017-09-27T02:47:30.271Z,962.06
2017-09-27T02:49:31.251Z,962.11
2017-09-27T02:50:23.670Z,962.08
2017-09-27T02:52:26.665Z,962.10
2017-09-27T02:53:18.022Z,962.10
2017-09-27T02:55:19.106Z,962.09
2017-09-27T02:56:11.454Z,962.10
2017-09-27T02:58:14.496Z,962.13
2017-09-27T02:59:05.834Z,962.10
2017-09-27T03:01:06.881Z,962.14
2017-09-27T03:01:59.244Z,962.16
2017-09-27T03:04:00.613Z,962.20
2017-09-27T03:04:52.635Z,962.18
2017-09-27T03:06:53.705Z,962.15
2017-09-27T03:07:46.091Z,962.22
2017-09-27T03:09:48.036Z,962.22
2017-09-27T03:10:39.439Z,962.24
2017-09-27T03:12:41.499Z,962.26
2017-09-27T03:13:32.853Z,962.25
2017-09-27T03:15:34.850Z,962.26
2017-09-27T03:16:26.247Z,962.24
2017-09-27T03:18:29.292Z,962.30
2017-09-27T03:19:20.681Z,962.31
2017-09-27T03:21:21.698Z,962.31
2017-09-27T03:22:14.117Z,962.30
2017-09-27T03:24:15.053Z,962.27
2017-09-27T03:25:07.456Z,962.33
2017-09-27T03:27:09.163Z,962.31
2017-09-27T03:28:00.850Z,962.32
2017-09-27T03:30:01.945Z,962.32
2017-09-27T03:30:54.360Z,962.31
2017-09-27T03:32:48.962Z,962.32
2017-09-27T03:33:48.757Z,962.34
2017-09-27T03:35:51.269Z,962.34
2017-09-27T03:36:49.727Z,962.33
2017-09-27T03:38:43.258Z,962.36
2017-09-27T03:39:35.470Z,962.36
2017-09-27T03:41:37.550Z,962.38
2017-09-27T03:42:28.959Z,962.35
2017-09-27T03:44:30.987Z,962.37
2017-09-27T03:45:22.345Z,962.37
2017-09-27T03:47:15.882Z,962.36
2017-09-27T03:48:15.758Z,962.38
2017-09-27T03:50:17.839Z,962.29
2017-09-27T03:51:10.075Z,962.33
2017-09-27T03:53:03.494Z,962.33
2017-09-27T03:54:03.526Z,962.32
2017-09-27T03:55:56.989Z,962.32
2017-09-27T03:56:56.988Z,962.34
2017-09-27T03:58:50.379Z,962.34
2017-09-27T03:59:50.415Z,962.30
2017-09-27T04:01:43.791Z,962.28
2017-09-27T04:02:43.787Z,962.33
2017-09-27T04:04:37.201Z,962.30
2017-09-27T04:05:37.184Z,962.32
2017-09-27T04:07:30.580Z,962.34
2017-09-27T04:08:30.615Z,962.36
2017-09-27T04:10:24.029Z,962.34
2017-09-27T04:11:23.979Z,962.35
2017-09-27T04:13:17.444Z,962.40
2017-09-27T04:14:17.401Z,962.36
2017-09-27T04:16:10.800Z,962.44
2017-09-27T04:17:18.537Z,962.44
2017-09-27T04:19:04.325Z,962.41
2017-09-27T04:20:04.250Z,962.43
2017-09-27T04:21:57.214Z,962.45
2017-09-27T04:22:57.243Z,962.41
2017-09-27T04:24:50.689Z,962.41
2017-09-27T04:25:50.666Z,962.43
2017-09-27T04:27:45.111Z,962.39
2017-09-27T04:28:45.060Z,962.39
2017-09-27T04:30:39.479Z,962.34
2017-09-27T04:31:39.450Z,962.38
2017-09-27T04:33:40.563Z,962.41
2017-09-27T04:34:33.108Z,962.39
2017-09-27T04:36:26.307Z,962.43
2017-09-27T04:37:26.271Z,962.39
2017-09-27T04:39:19.688Z,962.43
2017-09-27T04:40:19.711Z,962.42
2017-09-27T04:42:13.082Z,962.49
2017-09-27T04:43:13.104Z,962.44
2017-09-27T04:45:07.564Z,962.49
2017-09-27T04:46:07.463Z,962.46
2017-09-27T04:48:00.873Z,962.44
2017-09-27T04:49:00.926Z,962.48
2017-09-27T04:50:54.347Z,962.46
2017-09-27T04:51:54.269Z,962.49
2017-09-27T04:53:56.301Z,962.47
2017-09-27T04:54:47.674Z,962.44
2017-09-27T04:56:41.074Z,962.49
2017-09-27T04:57:41.083Z,962.48
2017-09-27T04:59:34.463Z,962.50
2017-09-27T05:00:34.484Z,962.53
2017-09-27T05:02:27.893Z,962.48
2017-09-27T05:03:27.888Z,962.50
2017-09-27T05:05:21.282Z,962.51
2017-09-27T05:06:21.317Z,962.51
2017-09-27T05:08:15.675Z,962.50
2017-09-27T05:09:15.707Z,962.54
2017-09-27T05:11:09.040Z,962.58
2017-09-27T05:12:09.059Z,962.55
2017-09-27T05:14:02.546Z,962.58
2017-09-27T05:15:02.483Z,962.60
2017-09-27T05:16:55.929Z,962.59
2017-09-27T05:17:55.898Z,962.58
2017-09-27T05:19:49.318Z,962.58
2017-09-27T05:20:49.341Z,962.62
2017-09-27T05:22:42.691Z,962.58
2017-09-27T05:23:42.704Z,962.60
2017-09-27T05:25:36.119Z,962.60
2017-09-27T05:26:36.192Z,962.60
2017-09-27T05:28:30.054Z,962.57
2017-09-27T05:29:29.497Z,962.59
2017-09-27T05:31:23.909Z,962.61
2017-09-27T05:32:24.000Z,962.63
2017-09-27T05:34:18.325Z,962.65
2017-09-27T05:35:18.321Z,962.65
2017-09-27T05:37:11.779Z,962.67
2017-09-27T05:38:11.790Z,962.68
2017-09-27T05:40:05.321Z,962.69
2017-09-27T05:41:05.188Z,962.69
2017-09-27T05:42:58.694Z,962.74
2017-09-27T05:43:58.645Z,962.72
2017-09-27T05:45:52.139Z,962.68
2017-09-27T05:46:52.041Z,962.67
2017-09-27T05:48:45.504Z,962.68
2017-09-27T05:49:45.479Z,962.68
2017-09-27T05:51:38.946Z,962.66
2017-09-27T05:52:38.880Z,962.71
2017-09-27T05:54:39.953Z,962.72
2017-09-27T05:55:32.307Z,962.79
2017-09-27T05:57:25.996Z,962.77
2017-09-27T06:00:07.495Z,962.76
2017-09-27T06:00:59.220Z,962.76
2017-09-27T06:02:53.400Z,962.73
2017-09-27T06:03:53.454Z,962.77
2017-09-27T06:05:58.362Z,962.76
2017-09-27T06:06:47.842Z,962.79
2017-09-27T06:08:50.843Z,962.80
2017-09-27T06:09:50.878Z,962.83
2017-09-27T06:11:36.525Z,962.78
2017-09-27T06:12:45.810Z,962.79
2017-09-27T06:14:39.765Z,962.77
2017-09-27T06:15:39.757Z,962.81
2017-09-27T06:17:25.436Z,962.80
2017-09-27T06:18:35.355Z,962.82
2017-09-27T06:20:28.521Z,962.82
2017-09-27T06:21:20.018Z,962.87
2017-09-27T06:23:13.241Z,962.87
2017-09-27T06:24:13.302Z,962.90
2017-09-27T06:26:06.582Z,962.90
2017-09-27T06:27:06.679Z,962.87
2017-09-27T06:29:01.140Z,962.83
2017-09-27T06:30:01.098Z,962.89
2017-09-27T06:31:54.450Z,962.88
2017-09-27T06:32:54.547Z,962.92
2017-09-27T06:34:47.799Z,962.91
2017-09-27T06:35:47.811Z,962.93
2017-09-27T06:37:42.455Z,963.01
2017-09-27T06:38:42.250Z,962.99
2017-09-27T06:40:36.746Z,963.03
2017-09-27T06:41:36.658Z,963.05
2017-09-27T06:43:30.103Z,963.09
2017-09-27T06:44:30.141Z,963.10
2017-09-27T06:46:23.511Z,963.13
2017-09-27T06:47:23.503Z,963.17
2017-09-27T06:49:16.987Z,963.19
2017-09-27T06:50:24.568Z,963.18
2017-09-27T06:52:10.281Z,963.24
2017-09-27T06:53:10.329Z,963.21
2017-09-27T06:55:04.717Z,963.22
2017-09-27T06:56:04.749Z,963.22
2017-09-27T06:57:58.245Z,963.22
2017-09-27T06:58:58.129Z,963.26
2017-09-27T07:00:51.540Z,963.26
2017-09-27T07:01:51.548Z,963.27
2017-09-27T07:03:44.890Z,963.26
2017-09-27T07:04:44.906Z,963.26
2017-09-27T07:06:38.429Z,963.27
2017-09-27T07:07:38.324Z,963.30
2017-09-27T07:09:31.779Z,963.32
2017-09-27T07:10:31.734Z,963.34
2017-09-27T07:12:26.108Z,963.35
2017-09-27T07:13:26.272Z,963.32
2017-09-27T07:15:20.622Z,963.36
2017-09-27T07:16:20.510Z,963.34
2017-09-27T07:18:13.921Z,963.38
2017-09-27T07:19:13.960Z,963.38
2017-09-27T07:21:07.377Z,963.37
2017-09-27T07:22:07.365Z,963.36
2017-09-27T07:24:00.772Z,963.38
2017-09-27T07:25:00.783Z,963.43
2017-09-27T07:26:55.207Z,963.43
2017-09-27T07:27:55.173Z,963.42
2017-09-27T07:29:48.587Z,963.50
2017-09-27T07:30:48.619Z,963.51
2017-09-27T07:32:42.046Z,963.51
2017-09-27T07:33:41.998Z,963.51
2017-09-27T07:35:35.382Z,963.57
2017-09-27T07:36:35.418Z,963.53
2017-09-27T07:38:28.879Z,963.57
2017-09-27T07:39:28.811Z,963.51
2017-09-27T07:41:22.213Z,963.54
2017-09-27T07:42:22.250Z,963.56
2017-09-27T07:44:15.703Z,963.58
2017-09-27T07:45:15.655Z,963.63
2017-09-27T07:47:09.057Z,963.59
2017-09-27T07:48:09.011Z,963.62
2017-09-27T07:50:02.505Z,963.65
2017-09-27T07:51:02.458Z,963.64
2017-09-27T07:52:55.888Z,963.70
2017-09-27T07:53:55.889Z,963.69
2017-09-27T07:55:50.270Z,963.66
2017-09-27T07:56:50.304Z,963.66
2017-09-27T07:58:43.740Z,963.65
2017-09-27T07:59:43.688Z,963.68
2017-09-27T08:01:37.120Z,963.68
2017-09-27T08:02:37.115Z,963.68
2017-09-27T08:04:31.497Z,963.68
2017-09-27T08:05:31.499Z,963.72
2017-09-27T08:07:24.911Z,963.69
2017-09-27T08:08:24.899Z,963.71
2017-09-27T08:10:19.308Z,963.74
2017-09-27T08:11:19.315Z,963.73
2017-09-27T08:13:13.742Z,963.72
2017-09-27T08:14:13.739Z,963.74
2017-09-27T08:16:07.150Z,963.73
2017-09-27T08:17:07.128Z,963.74
2017-09-27T08:19:00.539Z,963.73
2017-09-27T08:20:00.533Z,963.72
2017-09-27T08:21:54.010Z,963.71
2017-09-27T08:22:53.960Z,963.71
2017-09-27T08:24:47.320Z,963.71
2017-09-27T08:25:47.369Z,963.69
2017-09-27T08:27:41.789Z,963.75
2017-09-27T08:28:41.763Z,963.76
2017-09-27T08:30:35.180Z,963.73
2017-09-27T08:31:35.168Z,963.76
2017-09-27T08:33:29.662Z,963.69
2017-09-27T08:34:29.618Z,963.68
2017-09-27T08:36:23.071Z,963.67
2017-09-27T08:37:23.031Z,963.70
2017-09-27T08:39:16.427Z,963.67
2017-09-27T08:40:16.445Z,963.68
2017-09-27T08:42:10.850Z,963.68
2017-09-27T08:43:10.845Z,963.69
2017-09-27T08:45:04.290Z,963.69
2017-09-27T08:46:04.210Z,963.70
2017-09-27T08:47:57.631Z,963.68
2017-09-27T08:48:57.665Z,963.70
2017-09-27T08:50:51.062Z,963.70
2017-09-27T08:51:51.050Z,963.70
2017-09-27T08:53:44.505Z,963.69
2017-09-27T08:54:44.478Z,963.70
2017-09-27T08:56:37.853Z,963.67
2017-09-27T08:57:37.873Z,963.72
2017-09-27T08:59:31.291Z,963.68
2017-09-27T09:00:31.292Z,963.67
2017-09-27T09:02:24.731Z,963.65
2017-09-27T09:03:24.731Z,963.67
2017-09-27T09:05:18.223Z,963.70
2017-09-27T09:06:18.076Z,963.67
2017-09-27T09:08:12.497Z,963.67
2017-09-27T09:09:12.532Z,963.68
2017-09-27T09:11:05.984Z,963.65
2017-09-27T09:12:05.970Z,963.66
2017-09-27T09:13:59.306Z,963.68
2017-09-27T09:14:59.332Z,963.69
2017-09-27T09:16:52.802Z,963.69
2017-09-27T09:17:52.729Z,963.69
2017-09-27T09:19:46.189Z,963.71
2017-09-27T09:20:46.154Z,963.70
2017-09-27T09:22:39.602Z,963.68
2017-09-27T09:23:39.589Z,963.71
2017-09-27T09:25:33.015Z,963.69
2017-09-27T09:26:33.027Z,963.69
2017-09-27T09:28:27.439Z,963.67
2017-09-27T09:29:27.388Z,963.68
2017-09-27T09:31:20.786Z,963.69
2017-09-27T09:32:20.807Z,963.67
2017-09-27T09:34:15.231Z,963.66
2017-09-27T09:35:15.221Z,963.65
2017-09-27T09:37:08.604Z,963.65
2017-09-27T09:38:08.638Z,963.60
2017-09-27T09:40:02.089Z,963.62
2017-09-27T09:41:02.051Z,963.60
2017-09-27T09:42:55.486Z,963.61
2017-09-27T09:43:55.458Z,963.65
2017-09-27T09:45:48.947Z,963.65
2017-09-27T09:46:48.960Z,963.65
2017-09-27T09:48:42.378Z,963.63
2017-09-27T09:49:42.353Z,963.59
2017-09-27T09:51:36.742Z,963.52
2017-09-27T09:52:36.782Z,963.51
2017-09-27T09:54:30.172Z,963.51
2017-09-27T09:55:30.144Z,963.55
2017-09-27T09:57:23.604Z,963.56
2017-09-27T09:58:23.609Z,963.54
2017-09-27T10:00:17.953Z,963.59
2017-09-27T10:01:17.995Z,963.55
2017-09-27T10:03:12.434Z,963.54
2017-09-27T10:04:12.376Z,963.54
2017-09-27T10:06:06.798Z,963.51
2017-09-27T10:07:06.820Z,963.46
2017-09-27T10:09:00.246Z,963.50
2017-09-27T10:10:00.294Z,963.49
2017-09-27T10:11:53.630Z,963.42
2017-09-27T10:12:53.669Z,963.39
2017-09-27T10:14:47.170Z,963.35
2017-09-27T10:15:47.074Z,963.38
2017-09-27T10:17:41.567Z,963.34
2017-09-27T10:18:41.503Z,963.37
2017-09-27T10:20:34.917Z,963.59
2017-09-27T10:21:34.949Z,963.48
2017-09-27T10:23:28.318Z,963.45
2017-09-27T10:24:28.359Z,963.59
2017-09-27T10:26:21.727Z,963.58
2017-09-27T10:27:21.769Z,963.57
2017-09-27T10:29:15.128Z,963.51
2017-09-27T10:30:15.167Z,963.56
2017-09-27T10:32:09.562Z,963.47
2017-09-27T10:33:09.631Z,963.42
2017-09-27T10:35:03.006Z,963.43
2017-09-27T10:36:03.003Z,963.45
2017-09-27T10:37:56.560Z,963.41
2017-09-27T10:38:56.409Z,963.41
2017-09-27T10:40:50.940Z,963.37
2017-09-27T10:41:50.906Z,963.38
2017-09-27T10:43:44.259Z,963.35
2017-09-27T10:44:44.234Z,963.36
2017-09-27T10:46:37.722Z,963.35
2017-09-27T10:47:37.685Z,963.39
2017-09-27T10:49:31.119Z,963.48
2017-09-27T10:50:31.080Z,963.78
2017-09-27T10:52:24.572Z,963.77
2017-09-27T10:53:24.515Z,963.76
2017-09-27T10:55:18.090Z,963.80
2017-09-27T10:56:17.927Z,963.73
2017-09-27T10:58:11.359Z,963.74
2017-09-27T10:59:11.398Z,963.79
2017-09-27T11:01:04.812Z,963.80
2017-09-27T11:02:04.793Z,963.60
2017-09-27T11:03:58.226Z,963.82
2017-09-27T11:04:58.240Z,963.81
2017-09-27T11:06:52.732Z,963.76
2017-09-27T11:07:52.657Z,963.80
2017-09-27T11:09:46.074Z,963.76
2017-09-27T11:10:46.100Z,963.82
2017-09-27T11:12:39.066Z,963.37
2017-09-27T11:13:39.156Z,963.34
2017-09-27T11:15:32.536Z,963.33
2017-09-27T11:16:32.538Z,963.32
2017-09-27T11:18:25.983Z,963.72
2017-09-27T11:19:25.999Z,963.32
2017-09-27T11:21:19.387Z,963.27
2017-09-27T11:22:19.458Z,963.25
2017-09-27T11:24:13.819Z,963.24
2017-09-27T11:25:13.811Z,963.42
2017-09-27T11:27:08.376Z,963.52
2017-09-27T11:28:08.268Z,963.51
2017-09-27T11:30:01.705Z,963.44
2017-09-27T11:31:01.696Z,963.46
2017-09-27T11:32:55.133Z,963.43
2017-09-27T11:33:55.087Z,963.42
2017-09-27T11:35:48.537Z,963.12
2017-09-27T11:36:48.579Z,963.14
2017-09-27T11:38:42.021Z,963.11
2017-09-27T11:39:41.992Z,963.08
2017-09-27T11:41:35.417Z,963.24
2017-09-27T11:42:35.472Z,963.31
2017-09-27T11:44:29.829Z,963.02
2017-09-27T11:45:29.876Z,963.04
2017-09-27T11:47:23.231Z,963.03
2017-09-27T11:48:23.277Z,963.04
2017-09-27T11:50:16.665Z,963.01
2017-09-27T11:51:16.686Z,963.01
2017-09-27T11:53:10.083Z,963.01
2017-09-27T11:54:10.099Z,963.00
2017-09-27T11:56:03.493Z,962.94
2017-09-27T11:57:03.590Z,962.95
2017-09-27T11:58:57.048Z,962.94
2017-09-27T11:59:56.942Z,962.92
2017-09-27T12:01:51.769Z,962.93
2017-09-27T12:02:50.337Z,962.90
2017-09-27T12:04:43.773Z,962.89
2017-09-27T12:05:43.767Z,962.91
2017-09-27T12:07:37.236Z,962.90
2017-09-27T12:08:37.177Z,962.88
2017-09-27T12:10:30.602Z,962.90
2017-09-27T12:11:30.611Z,962.94
2017-09-27T12:13:24.091Z,962.94
2017-09-27T12:14:24.032Z,962.91
2017-09-27T12:16:18.443Z,962.93
2017-09-27T12:17:18.487Z,962.90
2017-09-27T12:19:12.864Z,962.89
2017-09-27T12:20:12.863Z,962.87
2017-09-27T12:22:06.296Z,962.87
2017-09-27T12:23:06.285Z,962.88
2017-09-27T12:24:59.842Z,962.92
2017-09-27T12:25:59.721Z,962.89
2017-09-27T12:27:53.108Z,962.94
2017-09-27T12:28:53.128Z,962.95
2017-09-27T12:30:46.545Z,962.99
2017-09-27T12:31:46.524Z,962.96
2017-09-27T12:33:39.938Z,962.99
2017-09-27T12:34:39.948Z,962.94
2017-09-27T12:36:33.433Z,962.91
2017-09-27T12:37:33.402Z,962.92
2017-09-27T12:39:26.788Z,962.85
2017-09-27T12:40:26.837Z,962.88
2017-09-27T12:42:20.276Z,962.92
2017-09-27T12:43:20.239Z,962.85
2017-09-27T12:45:13.629Z,962.85
2017-09-27T12:46:13.691Z,962.88
2017-09-27T12:48:07.096Z,962.83
2017-09-27T12:49:07.109Z,962.84
2017-09-27T12:51:01.594Z,962.89
2017-09-27T12:52:01.507Z,962.85
2017-09-27T12:53:55.054Z,962.92
2017-09-27T12:54:54.943Z,963.23
2017-09-27T12:56:48.333Z,963.17
2017-09-27T12:57:48.325Z,963.05
2017-09-27T12:59:41.831Z,962.96
2017-09-27T13:00:41.756Z,962.95
2017-09-27T13:02:35.179Z,963.05
2017-09-27T13:03:35.197Z,962.97
2017-09-27T13:05:29.610Z,963.13
2017-09-27T13:06:29.634Z,962.98
2017-09-27T13:08:23.038Z,962.97
2017-09-27T13:09:23.048Z,962.96
2017-09-27T13:11:16.529Z,963.03
2017-09-27T13:12:16.443Z,963.02
2017-09-27T13:14:09.856Z,962.97
2017-09-27T13:15:09.904Z,962.98
2017-09-27T13:17:03.324Z,962.95
2017-09-27T13:18:03.309Z,962.94
2017-09-27T13:19:56.738Z,962.98
2017-09-27T13:20:56.762Z,963.03
2017-09-27T13:22:50.147Z,962.96
2017-09-27T13:23:50.155Z,962.98
2017-09-27T13:25:43.555Z,963.01
2017-09-27T13:26:43.587Z,962.99
2017-09-27T13:28:37.004Z,963.04
2017-09-27T13:29:36.982Z,962.96
2017-09-27T13:31:30.454Z,962.94
2017-09-27T13:32:30.427Z,962.97
2017-09-27T13:34:24.854Z,962.93
2017-09-27T13:35:24.832Z,962.90
2017-09-27T13:37:18.260Z,962.87
2017-09-27T13:38:18.257Z,962.86
2017-09-27T13:40:11.670Z,962.86
2017-09-27T13:41:11.727Z,962.87
2017-09-27T13:43:05.119Z,962.93
2017-09-27T13:44:05.107Z,962.89
2017-09-27T13:45:58.543Z,962.86
2017-09-27T13:46:58.519Z,962.83
2017-09-27T13:48:51.909Z,962.87
2017-09-27T13:49:51.973Z,962.93
2017-09-27T13:51:45.457Z,962.80
2017-09-27T13:52:45.374Z,962.86
2017-09-27T13:54:38.869Z,962.82
2017-09-27T13:55:38.791Z,962.81
2017-09-27T13:57:32.204Z,962.84
2017-09-27T13:58:32.237Z,962.79
2017-09-27T14:00:25.648Z,962.80
2017-09-27T14:01:25.704Z,962.80
2017-09-27T14:03:19.077Z,962.80
2017-09-27T14:04:19.070Z,962.79
2017-09-27T14:06:12.512Z,962.72
2017-09-27T14:07:12.491Z,962.77
2017-09-27T14:09:05.940Z,962.73
2017-09-27T14:10:05.911Z,962.73
2017-09-27T14:11:59.358Z,962.72
2017-09-27T14:12:59.293Z,962.70
2017-09-27T14:14:53.796Z,962.73
2017-09-27T14:15:53.836Z,962.78
2017-09-27T14:17:48.173Z,962.78
2017-09-27T14:18:48.206Z,962.74
2017-09-27T14:20:42.575Z,962.75
2017-09-27T14:21:42.683Z,962.74
2017-09-27T14:23:35.985Z,962.74
2017-09-27T14:24:35.991Z,962.74
2017-09-27T14:26:30.513Z,962.78
2017-09-27T14:27:30.420Z,962.79
2017-09-27T14:29:23.845Z,962.72
2017-09-27T14:30:23.878Z,962.72
2017-09-27T14:32:17.266Z,962.77
2017-09-27T14:33:17.398Z,962.78
2017-09-27T14:35:10.753Z,962.84
2017-09-27T14:36:10.731Z,962.93
2017-09-27T14:38:04.084Z,963.03
2017-09-27T14:39:04.087Z,963.07
2017-09-27T14:40:58.565Z,963.16
2017-09-27T14:41:58.687Z,963.20
2017-09-27T14:43:52.041Z,963.19
2017-09-27T14:44:52.047Z,963.17
2017-09-27T14:46:45.344Z,963.13
2017-09-27T14:47:45.416Z,963.08
2017-09-27T14:49:38.819Z,962.68
2017-09-27T14:50:38.819Z,962.75
2017-09-27T14:52:32.223Z,962.57
2017-09-27T14:53:32.285Z,962.48
2017-09-27T14:55:25.785Z,962.45
2017-09-27T14:56:25.651Z,962.43
2017-09-27T14:58:20.107Z,962.40
2017-09-27T14:59:20.089Z,962.42
2017-09-27T15:01:13.492Z,962.41
2017-09-27T15:02:13.534Z,962.41
2017-09-27T15:04:07.082Z,962.38
2017-09-27T15:05:06.950Z,962.41
2017-09-27T15:07:00.479Z,962.39
2017-09-27T15:08:00.390Z,962.39
2017-09-27T15:09:54.818Z,962.35
2017-09-27T15:10:54.834Z,962.36
2017-09-27T15:12:48.322Z,962.33
2017-09-27T15:13:48.217Z,962.34
2017-09-27T15:15:41.672Z,962.36
2017-09-27T15:16:41.639Z,962.32
2017-09-27T15:18:35.072Z,962.35
2017-09-27T15:19:35.044Z,962.34
2017-09-27T15:21:28.471Z,962.31
2017-09-27T15:22:28.472Z,962.36
2017-09-27T15:24:22.016Z,962.34
2017-09-27T15:25:21.881Z,962.36
2017-09-27T15:27:15.283Z,962.37
2017-09-27T15:28:15.259Z,962.36
2017-09-27T15:30:08.716Z,962.36
2017-09-27T15:31:08.729Z,962.34
2017-09-27T15:33:02.155Z,962.38
2017-09-27T15:34:02.119Z,962.37
2017-09-27T15:35:56.610Z,962.40
2017-09-27T15:36:56.695Z,962.44
2017-09-27T15:38:50.071Z,962.40
2017-09-27T15:39:50.112Z,962.46
2017-09-27T15:41:43.613Z,962.47
2017-09-27T15:42:43.447Z,962.45
2017-09-27T15:44:37.924Z,962.48
2017-09-27T15:45:37.904Z,962.50
2017-09-27T15:47:31.438Z,962.52
2017-09-27T15:48:31.372Z,962.48
2017-09-27T15:50:24.695Z,962.47
2017-09-27T15:51:24.665Z,962.47
2017-09-27T15:53:18.117Z,962.50
2017-09-27T15:54:18.228Z,962.46
2017-09-27T15:56:11.699Z,962.46
2017-09-27T15:57:11.509Z,962.53
2017-09-27T15:59:05.926Z,962.52
2017-09-27T16:00:05.902Z,962.52
2017-09-27T16:01:59.379Z,962.52
2017-09-27T16:02:59.380Z,962.51
2017-09-27T16:04:52.773Z,962.50
2017-09-27T16:05:52.769Z,962.48
2017-09-27T16:07:47.244Z,962.47
2017-09-27T16:08:47.170Z,962.52
2017-09-27T16:10:40.664Z,962.52
2017-09-27T16:11:40.691Z,962.55
2017-09-27T16:13:35.059Z,962.53
2017-09-27T16:14:35.643Z,962.54
2017-09-27T16:16:28.430Z,962.48
2017-09-27T16:17:28.425Z,962.48
2017-09-27T16:19:21.897Z,962.50
2017-09-27T16:20:21.883Z,962.46
2017-09-27T16:22:15.293Z,962.48
2017-09-27T16:23:15.271Z,962.45
2017-09-27T16:25:08.739Z,962.47
2017-09-27T16:26:08.747Z,962.47
2017-09-27T16:28:02.262Z,962.44
2017-09-27T16:29:02.161Z,962.47
2017-09-27T16:30:55.536Z,962.46
2017-09-27T16:31:55.518Z,962.45
2017-09-27T16:33:48.953Z,962.46
2017-09-27T16:34:48.939Z,962.51
2017-09-27T16:36:42.426Z,962.49
2017-09-27T16:37:42.364Z,962.50
2017-09-27T16:39:35.953Z,962.51
2017-09-27T16:40:35.770Z,962.54
2017-09-27T16:42:29.177Z,962.55
2017-09-27T16:43:29.214Z,962.59
2017-09-27T16:45:22.631Z,962.58
2017-09-27T16:46:22.682Z,962.59
2017-09-27T16:48:16.195Z,962.63
2017-09-27T16:49:16.046Z,962.65
2017-09-27T16:51:09.507Z,962.64
2017-09-27T16:52:09.448Z,962.67
2017-09-27T16:54:04.985Z,962.68
2017-09-27T16:55:04.988Z,962.69
2017-09-27T16:56:58.380Z,962.73
2017-09-27T16:57:58.314Z,962.67
2017-09-27T16:59:51.703Z,962.74
2017-09-27T17:00:51.748Z,962.73
2017-09-27T17:02:45.211Z,962.69
2017-09-27T17:03:45.206Z,962.72
2017-09-27T17:05:39.646Z,962.72
2017-09-27T17:06:39.530Z,962.70
2017-09-27T17:08:34.038Z,962.71
2017-09-27T17:09:34.000Z,962.71
2017-09-27T17:11:27.459Z,962.73
2017-09-27T17:12:27.382Z,962.75
2017-09-27T17:14:20.792Z,962.77
2017-09-27T17:15:20.798Z,962.79
2017-09-27T17:17:14.201Z,962.81
2017-09-27T17:18:14.192Z,962.81
2017-09-27T17:20:07.693Z,962.80
2017-09-27T17:21:07.632Z,962.81
2017-09-27T17:23:01.074Z,962.85
2017-09-27T17:24:01.037Z,962.83
2017-09-27T17:25:54.425Z,962.83
2017-09-27T17:26:54.437Z,962.83
2017-09-27T17:28:47.893Z,962.88
2017-09-27T17:29:47.902Z,962.88
2017-09-27T17:31:41.292Z,962.88
2017-09-27T17:32:41.258Z,962.87
2017-09-27T17:34:34.699Z,962.88
2017-09-27T17:35:34.723Z,962.91
2017-09-27T17:37:28.378Z,962.91
2017-09-27T17:38:30.052Z,962.87
2017-09-27T17:40:21.446Z,962.94
2017-09-27T17:41:21.464Z,962.93
2017-09-27T17:43:14.877Z,962.96
2017-09-27T17:44:14.866Z,962.95
2017-09-27T17:46:08.264Z,962.97
2017-09-27T17:47:08.272Z,962.99
2017-09-27T17:49:01.699Z,963.00
2017-09-27T17:50:01.692Z,963.02
2017-09-27T17:51:55.123Z,963.02
2017-09-27T17:52:55.096Z,963.04
2017-09-27T17:54:48.504Z,963.07
2017-09-27T17:55:48.497Z,963.04
2017-09-27T17:57:42.952Z,963.03
2017-09-27T17:58:43.133Z,963.09
2017-09-27T18:00:36.294Z,963.08
2017-09-27T18:01:36.307Z,963.06
2017-09-27T18:03:30.845Z,963.08
2017-09-27T18:04:30.723Z,963.08
2017-09-27T18:06:24.110Z,963.05